createdAt,value
2019-02-18T00:02:43.269Z,5.01
2019-02-18T00:07:46.719Z,4.99
2019-02-18T00:12:50.283Z,4.98
2019-02-18T00:17:53.697Z,4.87
2019-02-18T00:22:57.150Z,4.89
2019-02-18T00:28:00.777Z,4.71
2019-02-18T00:33:04.197Z,4.70
2019-02-18T00:38:07.604Z,4.78
2019-02-18T00:43:11.049Z,4.72
2019-02-18T00:48:14.470Z,4.67
2019-02-18T00:53:17.893Z,4.52
2019-02-18T00:58:21.334Z,4.38
2019-02-18T01:03:25.814Z,4.39
2019-02-18T01:08:29.372Z,4.38
2019-02-18T01:13:32.808Z,4.41
2019-02-18T01:18:36.345Z,4.42
2019-02-18T01:23:39.767Z,4.41
2019-02-18T01:28:43.224Z,4.39
2019-02-18T01:33:46.763Z,4.39
2019-02-18T01:38:50.206Z,4.42
2019-02-18T01:43:53.634Z,4.39
2019-02-18T01:48:57.068Z,4.37
2019-02-18T01:54:00.526Z,4.32
2019-02-18T01:59:03.952Z,4.32
2019-02-18T02:04:07.399Z,4.26
2019-02-18T02:09:12.618Z,4.13
2019-02-18T02:14:16.108Z,4.10
2019-02-18T02:19:19.531Z,4.06
2019-02-18T02:24:22.976Z,3.99
2019-02-18T02:29:26.440Z,3.97
2019-02-18T02:34:29.877Z,3.90
2019-02-18T02:39:33.310Z,3.85
2019-02-18T02:44:36.737Z,3.80
2019-02-18T02:49:40.208Z,3.71
2019-02-18T02:54:43.681Z,3.75
2019-02-18T02:59:47.110Z,3.78
2019-02-18T03:04:50.546Z,3.71
2019-02-18T03:09:53.971Z,3.62
2019-02-18T03:14:57.409Z,3.64
2019-02-18T03:20:00.855Z,3.61
2019-02-18T03:25:21.195Z,3.59
2019-02-18T03:30:45.054Z,3.51
2019-02-18T03:35:48.467Z,3.46
2019-02-18T03:41:02.435Z,3.42
2019-02-18T03:45:57.121Z,3.36
2019-02-18T03:51:00.551Z,3.38
2019-02-18T03:56:04.057Z,3.37
2019-02-18T04:01:07.693Z,3.33
2019-02-18T04:06:11.136Z,3.25
2019-02-18T04:11:15.125Z,3.26
2019-02-18T04:16:18.586Z,3.29
2019-02-18T04:21:22.004Z,3.21
2019-02-18T04:26:25.434Z,3.23
2019-02-18T04:31:28.878Z,3.22
2019-02-18T04:36:32.525Z,3.13
2019-02-18T04:41:35.893Z,3.09
2019-02-18T04:46:39.423Z,3.03
2019-02-18T04:51:42.863Z,3.04
2019-02-18T04:56:46.290Z,3.03
2019-02-18T05:01:49.718Z,2.97
2019-02-18T05:06:53.168Z,2.92
2019-02-18T05:11:56.590Z,3.02
2019-02-18T05:17:00.022Z,3.06
2019-02-18T05:22:03.457Z,3.01
2019-02-18T05:27:06.884Z,2.94
2019-02-18T05:32:10.315Z,2.89
2019-02-18T05:37:13.735Z,2.84
2019-02-18T05:42:17.185Z,2.92
2019-02-18T05:47:20.613Z,2.88
2019-02-18T05:52:24.070Z,2.87
2019-02-18T05:57:27.501Z,2.84
2019-02-18T06:02:30.923Z,2.75
2019-02-18T06:07:34.351Z,2.73
2019-02-18T06:12:37.823Z,2.76
2019-02-18T06:17:41.350Z,2.79
2019-02-18T06:22:44.858Z,2.78
2019-02-18T06:27:48.333Z,2.77
2019-02-18T06:32:51.826Z,2.74
2019-02-18T06:37:55.246Z,2.71
2019-02-18T06:42:58.667Z,2.67
2019-02-18T06:48:03.736Z,2.64
2019-02-18T06:53:07.197Z,2.61
2019-02-18T06:58:18.048Z,2.56
2019-02-18T07:03:41.141Z,2.48
2019-02-18T07:08:58.085Z,2.50
2019-02-18T07:14:01.595Z,2.50
2019-02-18T07:19:05.029Z,2.52
2019-02-18T07:24:08.462Z,2.58
2019-02-18T07:29:11.875Z,2.65
2019-02-18T07:34:15.297Z,2.68
2019-02-18T07:39:18.723Z,2.75
2019-02-18T07:44:22.154Z,2.82
2019-02-18T07:49:26.183Z,2.87
2019-02-18T07:54:29.987Z,2.92
2019-02-18T07:59:33.442Z,2.89
2019-02-18T08:04:36.882Z,2.89
2019-02-18T08:09:40.328Z,2.89
2019-02-18T08:14:44.281Z,2.93
2019-02-18T08:19:47.692Z,3.09
2019-02-18T08:24:51.138Z,3.36
2019-02-18T08:29:54.619Z,3.81
2019-02-18T08:34:58.048Z,4.26
2019-02-18T08:40:01.482Z,4.65
2019-02-18T08:45:07.743Z,4.87
2019-02-18T08:50:13.068Z,4.95
2019-02-18T08:55:16.870Z,5.26
2019-02-18T09:00:21.166Z,5.69
2019-02-18T09:05:24.914Z,6.17
2019-02-18T09:10:33.446Z,6.55
2019-02-18T09:15:34.538Z,7.25
2019-02-18T09:20:38.054Z,7.70
2019-02-18T09:25:45.695Z,8.17
2019-02-18T09:30:50.111Z,8.57
2019-02-18T09:35:53.613Z,9.20
2019-02-18T09:40:57.144Z,9.77
2019-02-18T09:46:00.582Z,10.21
2019-02-18T09:51:04.013Z,10.75
2019-02-18T09:56:07.635Z,11.18
2019-02-18T10:01:11.080Z,11.48
2019-02-18T10:06:16.188Z,12.03
2019-02-18T10:11:19.865Z,12.39
2019-02-18T10:16:26.868Z,12.93
2019-02-18T10:21:30.514Z,13.43
2019-02-18T10:26:34.424Z,13.92
2019-02-18T10:31:38.381Z,14.47
2019-02-18T10:36:43.170Z,14.94
2019-02-18T10:41:46.707Z,15.38
2019-02-18T10:46:50.468Z,15.67
2019-02-18T10:51:56.865Z,16.00
2019-02-18T10:57:02.333Z,16.52
2019-02-18T11:02:06.048Z,16.79
2019-02-18T11:07:15.241Z,17.36
2019-02-18T11:12:20.129Z,17.57
2019-02-18T11:17:26.696Z,17.70
2019-02-18T11:22:30.108Z,18.30
2019-02-18T11:27:33.567Z,18.25
2019-02-18T11:32:37.239Z,18.62
2019-02-18T11:37:41.537Z,18.67
2019-02-18T11:42:45.476Z,18.27
2019-02-18T11:47:49.538Z,18.49
2019-02-18T11:52:53.297Z,18.99
2019-02-18T11:57:57.453Z,19.47
2019-02-18T12:03:11.595Z,19.87
2019-02-18T12:08:09.389Z,20.07
2019-02-18T12:13:12.820Z,19.61
2019-02-18T12:18:16.932Z,20.11
2019-02-18T12:23:21.152Z,20.28
2019-02-18T12:28:25.226Z,20.40
2019-02-18T12:33:35.168Z,20.31
2019-02-18T12:38:42.215Z,20.56
2019-02-18T12:43:48.931Z,20.68
2019-02-18T12:49:04.463Z,20.97
2019-02-18T12:54:05.331Z,21.33
2019-02-18T12:59:08.964Z,21.33
2019-02-18T13:04:12.615Z,21.71
2019-02-18T13:09:22.657Z,22.07
2019-02-18T13:14:49.187Z,22.10
2019-02-18T13:19:40.115Z,22.49
2019-02-18T13:24:55.237Z,22.34
2019-02-18T13:30:07.628Z,22.16
2019-02-18T13:35:14.186Z,21.81
2019-02-18T13:40:25.523Z,21.81
2019-02-18T13:45:28.918Z,21.87
2019-02-18T13:50:36.686Z,21.86
2019-02-18T13:55:45.361Z,21.87
2019-02-18T14:00:49.238Z,21.61
2019-02-18T14:05:54.934Z,21.45
2019-02-18T14:11:14.404Z,21.08
2019-02-18T14:16:18.975Z,20.79
2019-02-18T14:21:28.391Z,20.60
2019-02-18T14:26:35.641Z,20.49
2019-02-18T14:31:44.002Z,20.35
2019-02-18T14:36:54.584Z,19.97
2019-02-18T14:42:05.601Z,19.64
2019-02-18T14:47:12.053Z,19.41
2019-02-18T14:52:18.880Z,19.09
2019-02-18T14:57:27.092Z,18.97
2019-02-18T15:02:36.810Z,18.84
2019-02-18T15:07:57.238Z,18.61
2019-02-18T15:13:05.879Z,18.51
2019-02-18T15:18:09.284Z,18.29
2019-02-18T15:23:15.316Z,18.11
2019-02-18T15:28:27.112Z,18.08
2019-02-18T15:33:43.279Z,17.87
2019-02-18T15:38:45.165Z,17.75
2019-02-18T15:43:51.458Z,17.56
2019-02-18T15:49:01.256Z,17.32
2019-02-18T15:54:09.316Z,17.00
2019-02-18T15:59:10.446Z,16.91
2019-02-18T16:04:14.278Z,16.66
2019-02-18T16:09:19.797Z,16.40
2019-02-18T16:14:24.991Z,16.14
2019-02-18T16:19:30.625Z,15.77
2019-02-18T16:24:35.723Z,15.46
2019-02-18T16:29:42.669Z,15.12
2019-02-18T16:34:50.653Z,14.87
2019-02-18T16:39:58.556Z,14.60
2019-02-18T16:45:01.996Z,14.21
2019-02-18T16:50:06.774Z,13.89
2019-02-18T16:55:12.309Z,13.60
2019-02-18T17:00:29.305Z,13.26
2019-02-18T17:05:48.800Z,12.98
2019-02-18T17:10:45.281Z,12.68
2019-02-18T17:15:51.677Z,12.40
2019-02-18T17:20:56.984Z,12.14
2019-02-18T17:26:00.424Z,11.94
2019-02-18T17:31:04.026Z,11.74
2019-02-18T17:36:07.897Z,11.47
2019-02-18T17:41:11.441Z,11.39
2019-02-18T17:46:14.884Z,11.32
2019-02-18T17:51:18.397Z,11.30
2019-02-18T17:56:21.835Z,11.18
2019-02-18T18:01:25.518Z,11.03
2019-02-18T18:06:29.025Z,11.07
2019-02-18T18:11:32.955Z,11.07
2019-02-18T18:16:37.247Z,11.02
2019-02-18T18:21:40.959Z,10.99
2019-02-18T18:26:44.676Z,10.88
2019-02-18T18:31:48.122Z,10.83
2019-02-18T18:36:51.557Z,10.75
2019-02-18T18:41:55.042Z,10.68
2019-02-18T18:46:58.507Z,10.65
2019-02-18T18:52:01.990Z,10.59
2019-02-18T18:57:05.497Z,10.47
2019-02-18T19:02:09.388Z,10.30
2019-02-18T19:07:12.827Z,10.12
2019-02-18T19:12:16.314Z,9.94
2019-02-18T19:17:19.753Z,9.76
2019-02-18T19:22:23.190Z,9.67
2019-02-18T19:27:26.679Z,9.60
2019-02-18T19:32:30.130Z,9.54
2019-02-18T19:37:33.590Z,9.46
2019-02-18T19:42:37.126Z,9.43
2019-02-18T19:47:40.639Z,9.41
2019-02-18T19:52:44.386Z,9.45
2019-02-18T19:57:47.811Z,9.36
2019-02-18T20:02:51.507Z,9.36
2019-02-18T20:07:54.933Z,9.37
2019-02-18T20:12:58.368Z,9.31
2019-02-18T20:18:02.129Z,9.23
2019-02-18T20:23:05.723Z,9.14
2019-02-18T20:28:09.175Z,9.06
2019-02-18T20:33:12.747Z,8.98
2019-02-18T20:38:16.192Z,8.85
2019-02-18T20:43:19.879Z,8.65
2019-02-18T20:48:23.318Z,8.59
2019-02-18T20:53:26.762Z,8.43
2019-02-18T20:58:30.293Z,8.35
2019-02-18T21:03:34.272Z,8.30
2019-02-18T21:08:37.777Z,8.31
2019-02-18T21:13:41.212Z,8.25
2019-02-18T21:18:44.742Z,8.22
2019-02-18T21:23:49.185Z,8.18
2019-02-18T21:28:52.697Z,8.20
2019-02-18T21:33:56.126Z,8.24
2019-02-18T21:38:59.618Z,8.21
2019-02-18T21:44:03.094Z,8.16
2019-02-18T21:49:06.477Z,8.15
2019-02-18T21:54:09.992Z,8.06
2019-02-18T21:59:13.434Z,8.10
2019-02-18T22:04:18.045Z,8.13
2019-02-18T22:09:21.690Z,8.13
2019-02-18T22:14:33.084Z,8.15
2019-02-18T22:19:30.382Z,8.17
2019-02-18T22:24:33.826Z,8.20
2019-02-18T22:29:37.233Z,8.23
2019-02-18T22:34:40.665Z,8.24
2019-02-18T22:39:44.118Z,8.21
2019-02-18T22:44:47.997Z,8.09
2019-02-18T22:49:51.432Z,8.07
2019-02-18T22:54:54.850Z,7.99
2019-02-18T22:59:59.521Z,7.92
2019-02-18T23:05:03.301Z,7.89
2019-02-18T23:10:07.591Z,7.85
2019-02-18T23:15:11.100Z,7.75
2019-02-18T23:20:14.542Z,7.72
2019-02-18T23:25:17.973Z,7.67
2019-02-18T23:30:21.410Z,7.55
2019-02-18T23:35:24.844Z,7.55
2019-02-18T23:40:28.308Z,7.62
2019-02-18T23:45:31.723Z,7.64
2019-02-18T23:50:35.141Z,7.66
2019-02-18T23:55:38.582Z,7.65
